createdAt,value
2019-05-13T00:00:23.485Z,0
2019-05-13T00:01:07.047Z,0
2019-05-13T00:01:44.160Z,0
2019-05-13T00:02:24.722Z,0
2019-05-13T00:03:05.308Z,0
2019-05-13T00:09:10.478Z,0
2019-05-13T00:09:51.037Z,0
2019-05-13T00:10:31.603Z,0
2019-05-13T00:11:13.600Z,0
2019-05-13T00:11:53.987Z,0
2019-05-13T00:12:35.378Z,0
2019-05-13T00:13:14.650Z,0
2019-05-13T00:13:54.444Z,0
2019-05-13T00:14:35.023Z,0
2019-05-13T00:15:15.581Z,0
2019-05-13T00:17:17.287Z,0
2019-05-13T00:17:57.842Z,0
2019-05-13T00:18:38.409Z,0
2019-05-13T00:19:18.935Z,0
2019-05-13T00:19:59.497Z,0
2019-05-13T00:20:40.081Z,0
2019-05-13T00:21:23.108Z,0
2019-05-13T00:22:03.531Z,0
2019-05-13T00:22:44.347Z,0
2019-05-13T00:28:47.113Z,0
2019-05-13T00:29:27.715Z,0
2019-05-13T00:30:08.289Z,0
2019-05-13T00:30:48.834Z,0
2019-05-13T00:31:29.429Z,0
2019-05-13T00:32:09.984Z,0
2019-05-13T00:32:50.592Z,0
2019-05-13T00:33:33.297Z,0
2019-05-13T00:34:14.146Z,0
2019-05-13T00:34:53.378Z,0
2019-05-13T00:40:16.947Z,0
2019-05-13T00:40:57.576Z,0
2019-05-13T00:41:38.158Z,0
2019-05-13T00:42:18.775Z,0
2019-05-13T00:42:59.320Z,0
2019-05-13T00:43:39.902Z,0
2019-05-13T00:44:20.451Z,0
2019-05-13T00:45:01.029Z,0
2019-05-13T00:45:44.084Z,0
2019-05-13T00:46:23.572Z,0
2019-05-13T00:52:27.270Z,0
2019-05-13T00:53:07.863Z,0
2019-05-13T00:53:48.455Z,0
2019-05-13T00:54:29.065Z,0
2019-05-13T00:55:10.199Z,0
2019-05-13T00:55:50.264Z,0
2019-05-13T00:56:30.848Z,0
2019-05-13T00:57:13.332Z,0
2019-05-13T00:57:53.856Z,0
2019-05-13T01:03:57.329Z,0
2019-05-13T01:04:37.892Z,0
2019-05-13T01:05:18.471Z,0
2019-05-13T01:05:59.046Z,0
2019-05-13T01:06:39.637Z,0
2019-05-13T01:07:25.776Z,0
2019-05-13T01:08:00.752Z,0
2019-05-13T01:08:41.341Z,0
2019-05-13T01:09:23.689Z,0
2019-05-13T01:15:27.030Z,0
2019-05-13T01:16:07.607Z,0
2019-05-13T01:16:48.182Z,0
2019-05-13T01:17:28.738Z,0
2019-05-13T01:18:09.315Z,0
2019-05-13T01:18:49.877Z,0
2019-05-13T01:19:30.468Z,0
2019-05-13T01:20:11.044Z,0
2019-05-13T01:20:53.628Z,0
2019-05-13T01:21:34.318Z,0
2019-05-13T01:27:37.359Z,0
2019-05-13T01:28:17.924Z,0
2019-05-13T01:28:58.475Z,0
2019-05-13T01:29:39.025Z,0
2019-05-13T01:30:19.583Z,0
2019-05-13T01:31:00.159Z,0
2019-05-13T01:31:40.708Z,0
2019-05-13T01:32:23.657Z,0
2019-05-13T01:33:04.046Z,0
2019-05-13T01:39:06.992Z,0
2019-05-13T01:39:47.547Z,0
2019-05-13T01:40:28.099Z,0
2019-05-13T01:41:08.685Z,0
2019-05-13T01:41:49.249Z,0
2019-05-13T01:42:29.823Z,0
2019-05-13T01:43:10.374Z,0
2019-05-13T01:43:50.961Z,0
2019-05-13T01:44:33.477Z,0
2019-05-13T01:45:13.643Z,0
2019-05-13T01:51:17.338Z,0
2019-05-13T01:51:57.895Z,0
2019-05-13T01:52:38.495Z,0
2019-05-13T01:53:19.059Z,0
2019-05-13T01:53:59.683Z,0
2019-05-13T01:54:40.275Z,0
2019-05-13T01:55:20.855Z,0
2019-05-13T01:56:03.613Z,0
2019-05-13T01:56:44.036Z,0
2019-05-13T02:02:47.091Z,0
2019-05-13T02:03:27.656Z,0
2019-05-13T02:04:08.224Z,0
2019-05-13T02:04:48.793Z,0
2019-05-13T02:05:29.337Z,0
2019-05-13T02:06:09.915Z,0
2019-05-13T02:06:50.470Z,0
2019-05-13T02:07:33.070Z,0
2019-05-13T02:08:14.055Z,0
2019-05-13T02:08:54.300Z,0
2019-05-13T02:14:57.271Z,0
2019-05-13T02:15:37.853Z,0
2019-05-13T02:16:18.427Z,0
2019-05-13T02:16:58.967Z,0
2019-05-13T02:17:40.273Z,0
2019-05-13T02:18:20.815Z,0
2019-05-13T02:19:03.625Z,0
2019-05-13T02:19:44.050Z,0
2019-05-13T02:25:47.146Z,0
2019-05-13T02:26:27.712Z,0
2019-05-13T02:27:08.280Z,0
2019-05-13T02:27:48.859Z,0
2019-05-13T02:28:29.473Z,0
2019-05-13T02:29:10.037Z,0
2019-05-13T02:29:50.594Z,0
2019-05-13T02:30:34.635Z,0
2019-05-13T02:31:13.570Z,0
2019-05-13T02:31:56.027Z,0
2019-05-13T02:38:14.241Z,0
2019-05-13T02:38:37.988Z,0
2019-05-13T02:39:18.616Z,0
2019-05-13T02:40:03.129Z,0
2019-05-13T02:40:42.823Z,4
2019-05-13T02:41:22.719Z,4
2019-05-13T02:42:03.392Z,4
2019-05-13T02:42:43.537Z,4
2019-05-13T02:43:23.004Z,4
2019-05-13T02:49:27.121Z,8
2019-05-13T02:50:07.667Z,4
2019-05-13T02:50:48.228Z,8
2019-05-13T02:51:28.795Z,8
2019-05-13T02:52:09.368Z,8
2019-05-13T02:52:52.920Z,12
2019-05-13T02:53:33.244Z,8
2019-05-13T02:54:12.331Z,12
2019-05-13T02:54:52.713Z,12
2019-05-13T02:55:32.945Z,16
2019-05-13T03:01:37.360Z,28
2019-05-13T03:02:18.518Z,32
2019-05-13T03:02:59.075Z,36
2019-05-13T03:03:39.643Z,36
2019-05-13T03:04:23.046Z,40
2019-05-13T03:05:03.068Z,44
2019-05-13T03:05:42.778Z,44
2019-05-13T03:06:22.338Z,48
2019-05-13T03:12:27.190Z,84
2019-05-13T03:13:07.772Z,88
2019-05-13T03:13:48.354Z,92
2019-05-13T03:14:32.021Z,96
2019-05-13T03:15:12.628Z,104
2019-05-13T03:15:52.132Z,112
2019-05-13T03:16:32.411Z,116
2019-05-13T03:17:12.985Z,124
2019-05-13T03:17:52.738Z,132
2019-05-13T03:22:53.986Z,188
2019-05-13T03:23:34.629Z,196
2019-05-13T03:24:15.273Z,208
2019-05-13T03:24:55.836Z,216
2019-05-13T03:25:36.391Z,228
2019-05-13T03:26:17.000Z,240
2019-05-13T03:26:57.577Z,248
2019-05-13T03:27:38.179Z,260
2019-05-13T03:28:21.962Z,272
2019-05-13T03:34:26.131Z,380
2019-05-13T03:35:06.990Z,392
2019-05-13T03:35:46.056Z,404
2019-05-13T03:36:26.573Z,416
2019-05-13T03:37:07.766Z,432
2019-05-13T03:37:46.777Z,440
2019-05-13T03:38:27.330Z,452
2019-05-13T03:39:12.077Z,464
2019-05-13T03:39:48.456Z,484
2019-05-13T03:40:29.066Z,496
2019-05-13T03:45:53.669Z,604
2019-05-13T03:46:34.228Z,616
2019-05-13T03:47:14.805Z,632
2019-05-13T03:47:55.418Z,644
2019-05-13T03:48:35.993Z,660
2019-05-13T03:49:16.527Z,672
2019-05-13T03:49:57.109Z,688
2019-05-13T03:50:37.678Z,700
2019-05-13T03:51:18.231Z,716
2019-05-13T03:51:58.794Z,732
2019-05-13T03:58:04.040Z,860
2019-05-13T03:58:44.592Z,876
2019-05-13T03:59:25.155Z,888
2019-05-13T04:00:05.733Z,900
2019-05-13T04:00:46.381Z,920
2019-05-13T04:01:26.930Z,932
2019-05-13T04:02:07.501Z,944
2019-05-13T04:02:48.121Z,960
2019-05-13T04:03:28.638Z,972
2019-05-13T04:09:36.218Z,1100
2019-05-13T04:10:14.261Z,1112
2019-05-13T04:10:54.832Z,1132
2019-05-13T04:11:35.416Z,1144
2019-05-13T04:12:15.962Z,1164
2019-05-13T04:12:56.550Z,1176
2019-05-13T04:13:37.105Z,1192
2019-05-13T04:14:17.659Z,1208
2019-05-13T04:14:58.227Z,1220
2019-05-13T04:15:38.780Z,1236
2019-05-13T04:21:44.187Z,1360
2019-05-13T04:22:24.758Z,1376
2019-05-13T04:23:05.406Z,1392
2019-05-13T04:23:45.964Z,1404
2019-05-13T04:24:26.544Z,1424
2019-05-13T04:25:07.084Z,1436
2019-05-13T04:25:47.661Z,1452
2019-05-13T04:26:28.201Z,1464
2019-05-13T04:27:08.756Z,1480
2019-05-13T04:33:14.227Z,1628
2019-05-13T04:33:54.498Z,1640
2019-05-13T04:34:35.075Z,1656
2019-05-13T04:35:15.708Z,1676
2019-05-13T04:35:56.262Z,1692
2019-05-13T04:36:36.843Z,1704
2019-05-13T04:37:17.410Z,1720
2019-05-13T04:37:57.968Z,1736
2019-05-13T04:38:38.534Z,1756
2019-05-13T04:44:43.870Z,1908
2019-05-13T04:45:24.442Z,1924
2019-05-13T04:46:04.990Z,1940
2019-05-13T04:46:45.600Z,1956
2019-05-13T04:47:26.157Z,1980
2019-05-13T04:48:06.734Z,2008
2019-05-13T04:48:47.301Z,2020
2019-05-13T04:49:27.873Z,2040
2019-05-13T04:50:08.450Z,2060
2019-05-13T04:50:48.998Z,2084
2019-05-13T04:56:14.304Z,2240
2019-05-13T04:56:54.180Z,2264
2019-05-13T04:57:34.748Z,2288
2019-05-13T04:58:15.305Z,2308
2019-05-13T04:58:55.910Z,2332
2019-05-13T04:59:40.210Z,2356
2019-05-13T05:00:17.065Z,2380
2019-05-13T05:01:04.573Z,2396
2019-05-13T05:01:40.042Z,2416
2019-05-13T05:02:21.943Z,2440
2019-05-13T05:08:24.154Z,2676
2019-05-13T05:09:04.722Z,2692
2019-05-13T05:10:11.471Z,2716
2019-05-13T05:10:32.951Z,2736
2019-05-13T05:11:06.543Z,2760
2019-05-13T05:13:22.048Z,2848
2019-05-13T05:14:02.649Z,2868
2019-05-13T05:14:41.794Z,2892
2019-05-13T05:15:23.338Z,2928
2019-05-13T05:16:02.814Z,2968
2019-05-13T05:16:44.792Z,3000
2019-05-13T05:17:23.007Z,3032
2019-05-13T05:18:03.557Z,3044
2019-05-13T05:18:44.138Z,3088
2019-05-13T05:19:24.803Z,3120
2019-05-13T05:24:51.784Z,3544
2019-05-13T05:25:31.892Z,3608
2019-05-13T05:26:11.665Z,3668
2019-05-13T05:26:52.156Z,3744
2019-05-13T05:27:31.756Z,3820
2019-05-13T05:28:12.230Z,3920
2019-05-13T05:28:52.801Z,4008
2019-05-13T05:29:33.368Z,4092
2019-05-13T05:30:13.921Z,4152
2019-05-13T05:30:54.500Z,4260
2019-05-13T05:37:01.352Z,86176
2019-05-13T05:37:41.597Z,85376
2019-05-13T05:38:23.666Z,85312
2019-05-13T05:39:01.739Z,83520
2019-05-13T05:39:42.083Z,83488
2019-05-13T05:40:31.155Z,84192
2019-05-13T05:41:03.087Z,84384
2019-05-13T05:41:43.645Z,85504
2019-05-13T05:42:24.227Z,86464
2019-05-13T05:48:31.458Z,85792
2019-05-13T05:49:12.445Z,86176
2019-05-13T05:49:51.570Z,85504
2019-05-13T05:50:31.888Z,85152
2019-05-13T05:53:45.146Z,92128
2019-05-13T05:54:25.737Z,91168
2019-05-13T05:55:06.306Z,89888
2019-05-13T05:55:46.871Z,90336
2019-05-13T05:56:27.465Z,91008
2019-05-13T05:57:08.047Z,94208
2019-05-13T05:57:48.631Z,94304
2019-05-13T05:58:31.273Z,93216
2019-05-13T05:59:12.192Z,92640
2019-05-13T06:05:15.952Z,90912
2019-05-13T06:05:56.511Z,89696
2019-05-13T06:06:37.103Z,86656
2019-05-13T06:07:17.739Z,85952
2019-05-13T06:07:58.299Z,87456
2019-05-13T06:08:40.744Z,89600
2019-05-13T06:09:21.289Z,92096
2019-05-13T06:10:02.197Z,92352
2019-05-13T06:16:05.356Z,95744
2019-05-13T06:16:45.962Z,95264
2019-05-13T06:17:26.540Z,91392
2019-05-13T06:18:07.205Z,89792
2019-05-13T06:18:47.759Z,88960
2019-05-13T06:19:28.322Z,88096
2019-05-13T06:20:08.898Z,85824
2019-05-13T06:20:51.172Z,83648
2019-05-13T06:21:32.071Z,85216
2019-05-13T06:26:54.965Z,90272
2019-05-13T06:27:35.562Z,91072
2019-05-13T06:28:16.146Z,91584
2019-05-13T06:28:56.732Z,92256
2019-05-13T06:29:37.354Z,92096
2019-05-13T06:30:17.931Z,91040
2019-05-13T06:30:58.556Z,90176
2019-05-13T06:31:41.643Z,90144
2019-05-13T06:32:23.184Z,90752
2019-05-13T06:38:25.270Z,92608
2019-05-13T06:39:06.039Z,93632
2019-05-13T06:39:46.667Z,95552
2019-05-13T06:40:27.275Z,96160
2019-05-13T06:41:11.340Z,95872
2019-05-13T06:41:48.517Z,95296
2019-05-13T06:42:29.083Z,95264
2019-05-13T06:43:11.745Z,94208
2019-05-13T06:49:15.172Z,92320
2019-05-13T06:49:55.748Z,96640
2019-05-13T06:50:36.349Z,97120
2019-05-13T06:53:51.720Z,88736
2019-05-13T06:54:32.859Z,92000
2019-05-13T06:55:11.786Z,95008
2019-05-13T06:55:52.437Z,95584
2019-05-13T06:56:32.812Z,96576
2019-05-13T06:57:13.688Z,96768
2019-05-13T06:57:54.053Z,96224
2019-05-13T06:58:34.669Z,93888
2019-05-13T06:59:15.242Z,89504
2019-05-13T07:04:56.810Z,91840
2019-05-13T07:05:37.389Z,90816
2019-05-13T07:06:17.980Z,91328
2019-05-13T07:07:09.712Z,94176
2019-05-13T07:07:39.182Z,94656
2019-05-13T07:08:21.907Z,93504
2019-05-13T07:09:01.387Z,91776
2019-05-13T07:09:42.623Z,92512
2019-05-13T07:10:21.815Z,93184
2019-05-13T07:16:26.928Z,87808
2019-05-13T07:17:07.517Z,85792
2019-05-13T07:17:48.340Z,86880
2019-05-13T07:18:28.904Z,89568
2019-05-13T07:19:11.628Z,90688
2019-05-13T07:19:51.622Z,88928
2019-05-13T07:20:32.099Z,86080
2019-05-13T07:21:12.484Z,88032
2019-05-13T07:21:52.119Z,93248
2019-05-13T07:27:16.678Z,97056
2019-05-13T07:27:57.301Z,97792
2019-05-13T07:28:37.848Z,96000
2019-05-13T07:29:18.892Z,93440
2019-05-13T07:29:59.064Z,90336
2019-05-13T07:30:42.086Z,91104
2019-05-13T07:31:21.747Z,92384
2019-05-13T07:32:01.656Z,96480
2019-05-13T07:32:42.137Z,101888
2019-05-13T07:38:46.749Z,92448
2019-05-13T07:39:27.361Z,92608
2019-05-13T07:40:07.915Z,93248
2019-05-13T07:40:48.504Z,94016
2019-05-13T07:41:36.249Z,89568
2019-05-13T07:42:11.943Z,83840
2019-05-13T07:42:52.215Z,85120
2019-05-13T07:43:31.987Z,85728
2019-05-13T07:44:11.939Z,83232
2019-05-13T07:50:16.825Z,84768
2019-05-13T07:51:00.400Z,85216
2019-05-13T07:51:37.991Z,87584
2019-05-13T07:52:18.547Z,88736
2019-05-13T07:53:01.978Z,87680
2019-05-13T07:53:39.757Z,87712
2019-05-13T07:54:22.001Z,85280
2019-05-13T07:55:01.583Z,85056
2019-05-13T07:55:42.165Z,85568
2019-05-13T08:01:46.914Z,18496
2019-05-13T08:02:27.484Z,18304
2019-05-13T08:03:08.063Z,17984
2019-05-13T08:03:48.669Z,17632
2019-05-13T08:04:29.271Z,17440
2019-05-13T08:05:11.968Z,17472
2019-05-13T08:05:51.280Z,7900
2019-05-13T08:06:32.291Z,13956
2019-05-13T08:07:12.162Z,17536
2019-05-13T08:12:36.999Z,13668
2019-05-13T08:13:17.612Z,13232
2019-05-13T08:13:58.197Z,12832
2019-05-13T08:14:43.034Z,12452
2019-05-13T08:15:19.360Z,12604
2019-05-13T08:16:01.854Z,12636
2019-05-13T08:16:42.671Z,12560
2019-05-13T08:17:22.414Z,12544
2019-05-13T08:18:02.328Z,12332
2019-05-13T08:22:46.516Z,10896
2019-05-13T08:23:27.059Z,4884
2019-05-13T08:24:07.633Z,4224
2019-05-13T08:24:51.715Z,3964
2019-05-13T08:25:28.812Z,4096
2019-05-13T08:26:09.407Z,4656
2019-05-13T08:26:52.817Z,5776
2019-05-13T08:27:34.795Z,5856
2019-05-13T08:28:12.221Z,5904
2019-05-13T08:29:00.686Z,6080
2019-05-13T08:34:16.521Z,6080
2019-05-13T08:35:01.218Z,5764
2019-05-13T08:35:37.709Z,9088
2019-05-13T08:36:18.276Z,8860
2019-05-13T08:36:58.862Z,8900
2019-05-13T08:37:41.348Z,8792
2019-05-13T08:38:22.076Z,8444
2019-05-13T08:39:02.570Z,8236
2019-05-13T08:39:41.564Z,8252
2019-05-13T08:40:23.355Z,5276
2019-05-13T08:45:46.861Z,8036
2019-05-13T08:46:27.403Z,7896
2019-05-13T08:47:07.978Z,7752
2019-05-13T08:47:51.028Z,4936
2019-05-13T08:48:29.169Z,4580
2019-05-13T08:49:11.832Z,4176
2019-05-13T08:49:51.999Z,4076
2019-05-13T08:50:32.346Z,4392
2019-05-13T08:51:11.795Z,6928
2019-05-13T08:57:16.806Z,6652
2019-05-13T08:57:57.380Z,6676
2019-05-13T08:58:37.954Z,6796
2019-05-13T08:59:18.668Z,7048
2019-05-13T09:00:03.858Z,7420
2019-05-13T09:00:41.401Z,7484
2019-05-13T09:01:22.652Z,7436
2019-05-13T09:02:02.849Z,7208
2019-05-13T09:02:42.168Z,5364
2019-05-13T09:08:06.575Z,6184
2019-05-13T09:08:47.164Z,6732
2019-05-13T09:09:27.787Z,6844
2019-05-13T09:10:08.427Z,6160
2019-05-13T09:10:49.044Z,5504
2019-05-13T09:11:31.465Z,5388
2019-05-13T09:12:11.563Z,5468
2019-05-13T09:12:52.169Z,5696
2019-05-13T09:13:32.946Z,6116
2019-05-13T09:18:16.799Z,6400
2019-05-13T09:18:57.381Z,6520
2019-05-13T09:19:37.965Z,6604
2019-05-13T09:20:18.547Z,6868
2019-05-13T09:20:59.115Z,7152
2019-05-13T09:21:42.018Z,7088
2019-05-13T09:22:21.297Z,7176
2019-05-13T09:23:02.022Z,7180
2019-05-13T09:23:41.513Z,7096
2019-05-13T09:29:46.839Z,5172
2019-05-13T09:30:27.584Z,5744
2019-05-13T09:31:08.096Z,5960
2019-05-13T09:31:48.624Z,6036
2019-05-13T09:32:31.200Z,6000
2019-05-13T09:33:11.403Z,6024
2019-05-13T09:33:52.044Z,6128
2019-05-13T09:34:32.730Z,6228
2019-05-13T09:35:12.085Z,6232
2019-05-13T09:41:16.509Z,6004
2019-05-13T09:41:57.082Z,5964
2019-05-13T09:42:48.767Z,5892
2019-05-13T09:43:18.201Z,6020
2019-05-13T09:43:58.765Z,6100
2019-05-13T09:44:41.631Z,6188
2019-05-13T09:45:21.535Z,6196
2019-05-13T09:46:01.617Z,6120
2019-05-13T09:46:42.449Z,6112
2019-05-13T09:47:21.882Z,6220
2019-05-13T09:53:26.849Z,6064
2019-05-13T09:54:07.417Z,5236
2019-05-13T09:54:48.029Z,5144
2019-05-13T09:55:29.393Z,5080
2019-05-13T09:56:11.551Z,5912
2019-05-13T09:56:51.807Z,6112
2019-05-13T09:57:32.116Z,5420
2019-05-13T09:58:11.811Z,5628
2019-05-13T09:58:51.557Z,6332
2019-05-13T10:04:56.740Z,6104
2019-05-13T10:05:37.327Z,6000
2019-05-13T10:06:17.895Z,5780
2019-05-13T10:06:58.518Z,5660
2019-05-13T10:07:39.123Z,5480
2019-05-13T10:08:21.924Z,5384
2019-05-13T10:09:02.174Z,5288
2019-05-13T10:09:42.745Z,5220
2019-05-13T10:10:22.230Z,5188
2019-05-13T10:16:26.652Z,3444
2019-05-13T10:17:07.278Z,3268
2019-05-13T10:17:48.107Z,3156
2019-05-13T10:18:28.699Z,3100
2019-05-13T10:19:12.274Z,3100
2019-05-13T10:19:51.997Z,3132
2019-05-13T10:20:31.797Z,3268
2019-05-13T10:21:11.008Z,3384
2019-05-13T10:21:52.340Z,3512
2019-05-13T10:27:56.806Z,4428
2019-05-13T10:28:37.375Z,4264
2019-05-13T10:29:17.929Z,4180
2019-05-13T10:29:58.519Z,4104
2019-05-13T10:30:39.109Z,4008
2019-05-13T10:31:21.800Z,3948
2019-05-13T10:32:02.466Z,3940
2019-05-13T10:32:42.489Z,4024
2019-05-13T10:33:22.091Z,4060
2019-05-13T10:39:26.640Z,4232
2019-05-13T10:40:07.227Z,4136
2019-05-13T10:40:47.794Z,3968
2019-05-13T10:41:28.354Z,3912
2019-05-13T10:42:11.807Z,4568
2019-05-13T10:42:52.181Z,4680
2019-05-13T10:43:31.599Z,4800
2019-05-13T10:44:12.051Z,4884
2019-05-13T10:44:52.193Z,4908
2019-05-13T10:52:34.271Z,4260
2019-05-13T10:53:14.947Z,4180
2019-05-13T10:53:59.381Z,4088
2019-05-13T10:54:36.167Z,4036
2019-05-13T10:55:16.760Z,3980
2019-05-13T10:55:57.287Z,3904
2019-05-13T10:56:37.860Z,3872
2019-05-13T10:57:18.403Z,3832
2019-05-13T10:57:59.040Z,3044
2019-05-13T11:04:04.255Z,2844
2019-05-13T11:04:44.827Z,3168
2019-05-13T11:05:25.468Z,2588
2019-05-13T11:06:06.140Z,2508
2019-05-13T11:06:47.364Z,2472
2019-05-13T11:07:27.968Z,3184
2019-05-13T11:08:08.593Z,3124
2019-05-13T11:08:49.149Z,3108
2019-05-13T11:12:15.113Z,2640
2019-05-13T11:12:55.714Z,2760
2019-05-13T11:13:51.993Z,2920
2019-05-13T11:14:16.903Z,3856
2019-05-13T11:14:57.494Z,3144
2019-05-13T11:15:40.448Z,4064
2019-05-13T11:16:18.771Z,4460
2019-05-13T11:17:01.538Z,4708
2019-05-13T11:21:44.375Z,4428
2019-05-13T11:22:24.492Z,4304
2019-05-13T11:23:05.136Z,4236
2019-05-13T11:23:45.722Z,4200
2019-05-13T11:24:26.289Z,4232
2019-05-13T11:25:06.870Z,4404
2019-05-13T11:25:47.445Z,4492
2019-05-13T11:26:28.026Z,4536
2019-05-13T11:27:08.597Z,4508
2019-05-13T11:27:49.172Z,4432
2019-05-13T11:33:54.409Z,4204
2019-05-13T11:34:34.996Z,4308
2019-05-13T11:35:15.558Z,4428
2019-05-13T11:35:56.189Z,4532
2019-05-13T11:36:36.948Z,4556
2019-05-13T11:37:17.550Z,4560
2019-05-13T11:37:58.110Z,4636
2019-05-13T11:38:38.681Z,4624
2019-05-13T11:39:21.613Z,4656
2019-05-13T11:44:44.287Z,4488
2019-05-13T11:45:24.924Z,4372
2019-05-13T11:46:05.507Z,4524
2019-05-13T11:46:46.244Z,4752
2019-05-13T11:47:26.858Z,5768
2019-05-13T11:48:07.499Z,5760
2019-05-13T11:48:48.092Z,5640
2019-05-13T11:49:28.660Z,5512
2019-05-13T11:50:11.501Z,5352
2019-05-13T11:55:34.063Z,4040
2019-05-13T11:56:14.634Z,3944
2019-05-13T11:57:01.457Z,3792
2019-05-13T11:57:35.904Z,3688
2019-05-13T11:58:16.436Z,3600
2019-05-13T11:58:56.999Z,3032
2019-05-13T11:59:37.627Z,3480
2019-05-13T12:00:18.201Z,3400
2019-05-13T12:00:58.823Z,3364
2019-05-13T12:07:04.126Z,3340
2019-05-13T12:07:44.698Z,3344
2019-05-13T12:08:25.278Z,3352
2019-05-13T12:09:05.858Z,3404
2019-05-13T12:09:46.490Z,3388
2019-05-13T12:10:27.076Z,3388
2019-05-13T12:11:07.654Z,3476
2019-05-13T12:11:48.222Z,3552
2019-05-13T12:12:31.699Z,2468
2019-05-13T12:13:11.857Z,3520
2019-05-13T12:18:34.293Z,4840
2019-05-13T12:19:14.876Z,4912
2019-05-13T12:19:55.459Z,4988
2019-05-13T12:20:36.011Z,5012
2019-05-13T12:21:16.591Z,4876
2019-05-13T12:21:57.193Z,4652
2019-05-13T12:22:37.760Z,4540
2019-05-13T12:23:18.378Z,4552
2019-05-13T12:24:06.265Z,4536
2019-05-13T12:29:24.486Z,4568
2019-05-13T12:30:05.070Z,4556
2019-05-13T12:30:45.720Z,3748
2019-05-13T12:31:26.374Z,4348
2019-05-13T12:32:06.931Z,3752
2019-05-13T12:32:47.525Z,3772
2019-05-13T12:33:28.130Z,3108
2019-05-13T12:34:12.673Z,4684
2019-05-13T12:34:52.357Z,4868
2019-05-13T12:40:13.998Z,3296
2019-05-13T12:40:54.630Z,3240
2019-05-13T12:41:35.176Z,3300
2019-05-13T12:42:15.749Z,3408
2019-05-13T12:42:56.312Z,3460
2019-05-13T12:43:36.993Z,2936
2019-05-13T12:44:17.629Z,2888
2019-05-13T12:45:05.282Z,2892
2019-05-13T12:45:38.755Z,3092
2019-05-13T12:46:19.318Z,2740
2019-05-13T12:51:04.633Z,2640
2019-05-13T12:51:45.296Z,2552
2019-05-13T12:52:25.877Z,2416
2019-05-13T12:53:06.455Z,2372
2019-05-13T12:53:47.006Z,4172
2019-05-13T12:54:27.652Z,4116
2019-05-13T12:55:08.281Z,4076
2019-05-13T12:55:53.535Z,4068
2019-05-13T13:00:52.877Z,4192
2019-05-13T13:01:32.354Z,4208
2019-05-13T13:02:13.266Z,4320
2019-05-13T13:02:52.071Z,4360
2019-05-13T13:03:32.571Z,4436
2019-05-13T13:04:13.332Z,4220
2019-05-13T13:05:08.818Z,2800
2019-05-13T13:10:22.818Z,3344
2019-05-13T13:11:00.474Z,3432
2019-05-13T13:11:43.436Z,3544
2019-05-13T13:12:29.580Z,3672
2019-05-13T13:13:02.398Z,3904
2019-05-13T13:13:57.770Z,4148
2019-05-13T13:14:23.624Z,4296
2019-05-13T13:15:30.820Z,4336
2019-05-13T13:15:48.477Z,4352
2019-05-13T13:21:10.132Z,4492
2019-05-13T13:21:53.364Z,4472
2019-05-13T13:22:32.042Z,4420
2019-05-13T13:23:12.825Z,4384
2019-05-13T13:23:51.927Z,4336
2019-05-13T13:24:32.478Z,4248
2019-05-13T13:25:13.416Z,4176
2019-05-13T13:25:56.978Z,4084
2019-05-13T13:26:34.157Z,6084
2019-05-13T13:27:22.788Z,6132
2019-05-13T13:32:43.900Z,3368
2019-05-13T13:33:20.200Z,3240
2019-05-13T13:34:11.146Z,3200
2019-05-13T13:34:43.875Z,3124
2019-05-13T13:35:22.743Z,2944
2019-05-13T13:36:05.049Z,2884
2019-05-13T13:36:46.273Z,2936
2019-05-13T13:40:10.166Z,3956
2019-05-13T13:40:53.390Z,4096
2019-05-13T13:41:32.639Z,4212
2019-05-13T13:42:13.190Z,4652
2019-05-13T13:42:53.626Z,5384
2019-05-13T13:43:36.794Z,4856
2019-05-13T13:47:39.527Z,6028
2019-05-13T13:48:24.913Z,5932
2019-05-13T13:49:01.228Z,5876
2019-05-13T13:49:43.860Z,5772
2019-05-13T13:50:24.452Z,4292
2019-05-13T13:51:04.787Z,4892
2019-05-13T13:51:45.173Z,3996
2019-05-13T13:55:55.496Z,4180
2019-05-13T13:56:32.586Z,2764
2019-05-13T13:57:13.520Z,2428
2019-05-13T13:57:56.572Z,2264
2019-05-13T14:01:13.559Z,3592
2019-05-13T14:02:36.485Z,4744
2019-05-13T14:03:12.503Z,4820
2019-05-13T14:03:53.137Z,4756
2019-05-13T14:04:33.448Z,4512
2019-05-13T14:08:37.736Z,2544
2019-05-13T14:09:18.338Z,2532
2019-05-13T14:10:02.940Z,2496
2019-05-13T14:10:41.742Z,2492
2019-05-13T14:11:22.657Z,2504
2019-05-13T14:12:01.973Z,2504
2019-05-13T14:12:41.741Z,2508
2019-05-13T14:13:21.983Z,2504
2019-05-13T14:14:02.397Z,2504
2019-05-13T14:14:42.983Z,2512
2019-05-13T14:18:47.891Z,2916
2019-05-13T14:19:29.478Z,3020
2019-05-13T14:20:10.351Z,3108
2019-05-13T14:20:52.857Z,3192
2019-05-13T14:21:32.376Z,3248
2019-05-13T14:22:12.655Z,4272
2019-05-13T14:22:57.375Z,4624
2019-05-13T14:28:18.013Z,3456
2019-05-13T14:28:58.412Z,3192
2019-05-13T14:29:42.987Z,3752
2019-05-13T14:30:21.315Z,3360
2019-05-13T14:31:01.840Z,3132
2019-05-13T14:31:41.419Z,3116
2019-05-13T14:32:22.500Z,3120
2019-05-13T14:33:02.854Z,3036
2019-05-13T14:38:28.078Z,3088
2019-05-13T14:39:08.733Z,2852
2019-05-13T14:39:49.545Z,2900
2019-05-13T14:40:31.939Z,3316
2019-05-13T14:41:12.276Z,3444
2019-05-13T14:41:51.871Z,2944
2019-05-13T14:42:32.651Z,5508
2019-05-13T14:48:38.041Z,2264
2019-05-13T14:49:18.610Z,2260
2019-05-13T14:50:01.893Z,2308
2019-05-13T14:50:41.590Z,2332
2019-05-13T14:51:21.809Z,2376
2019-05-13T14:52:01.966Z,2380
2019-05-13T14:52:42.497Z,2380
2019-05-13T14:53:23.118Z,2368
2019-05-13T14:58:47.714Z,2488
2019-05-13T14:59:28.294Z,2540
2019-05-13T15:00:08.889Z,2600
2019-05-13T15:01:06.896Z,2668
2019-05-13T15:01:31.852Z,2732
2019-05-13T15:02:11.845Z,2772
2019-05-13T15:02:51.857Z,2816
2019-05-13T15:03:32.682Z,2840
2019-05-13T15:04:12.634Z,2872
2019-05-13T15:10:18.111Z,3640
2019-05-13T15:10:58.712Z,4384
2019-05-13T15:11:41.836Z,2612
2019-05-13T15:12:21.580Z,2536
2019-05-13T15:13:02.978Z,5348
2019-05-13T15:13:42.472Z,5316
2019-05-13T15:14:22.081Z,5280
2019-05-13T15:15:02.426Z,5008
2019-05-13T15:15:43.010Z,4680
2019-05-13T15:21:08.041Z,3664
2019-05-13T15:21:48.621Z,4728
2019-05-13T15:22:31.601Z,1884
2019-05-13T15:23:11.884Z,1924
2019-05-13T15:23:51.708Z,3552
2019-05-13T15:24:32.280Z,1944
2019-05-13T15:25:11.876Z,1944
2019-05-13T15:25:52.442Z,2036
2019-05-13T15:26:33.030Z,3200
2019-05-13T15:31:57.970Z,2012
2019-05-13T15:32:38.756Z,2072
2019-05-13T15:33:21.366Z,2224
2019-05-13T15:34:02.472Z,4200
2019-05-13T15:34:42.450Z,2388
2019-05-13T15:35:21.222Z,4816
2019-05-13T15:36:02.320Z,4844
2019-05-13T15:36:42.474Z,4672
2019-05-13T15:37:23.095Z,4756
2019-05-13T15:42:48.041Z,2588
2019-05-13T15:43:28.638Z,2592
2019-05-13T15:44:11.375Z,2552
2019-05-13T15:44:50.036Z,2532
2019-05-13T15:45:31.854Z,2496
2019-05-13T15:46:12.493Z,2472
2019-05-13T15:46:52.426Z,2432
2019-05-13T15:47:32.675Z,2368
2019-05-13T15:52:57.742Z,1672
2019-05-13T15:53:38.380Z,1584
2019-05-13T15:54:19.015Z,1480
2019-05-13T15:55:01.378Z,1412
2019-05-13T15:55:40.186Z,1380
2019-05-13T15:56:22.321Z,1332
2019-05-13T15:57:02.313Z,1312
2019-05-13T15:57:42.826Z,1292
2019-05-13T15:58:37.960Z,1296
2019-05-13T16:04:28.177Z,1972
2019-05-13T16:05:08.727Z,2024
2019-05-13T16:05:51.617Z,2060
2019-05-13T16:06:32.131Z,2104
2019-05-13T16:07:12.204Z,2868
2019-05-13T16:07:52.260Z,4316
2019-05-13T16:08:32.130Z,4556
2019-05-13T16:09:12.482Z,4664
2019-05-13T16:09:53.043Z,4632
2019-05-13T16:15:17.762Z,4136
2019-05-13T16:15:58.408Z,4020
2019-05-13T16:16:41.545Z,3708
2019-05-13T16:17:26.061Z,3888
2019-05-13T16:18:02.503Z,3836
2019-05-13T16:18:41.946Z,3692
2019-05-13T16:19:22.117Z,3524
2019-05-13T16:20:02.389Z,3476
2019-05-13T16:20:45.272Z,2504
2019-05-13T16:26:48.222Z,748
2019-05-13T16:27:31.020Z,720
2019-05-13T16:28:09.384Z,688
2019-05-13T16:28:52.199Z,664
2019-05-13T16:29:31.508Z,640
2019-05-13T16:30:11.878Z,624
2019-05-13T16:30:51.793Z,612
2019-05-13T16:31:32.345Z,624
2019-05-13T16:32:12.907Z,684
2019-05-13T16:37:37.687Z,608
2019-05-13T16:38:18.261Z,540
2019-05-13T16:39:01.489Z,544